Time;durP1;ratioP1;P1;durP2;ratioP2;P2;SDS_P1;SDS_P2;PMS_P1;PMS_P2;Temp;Humidity;BMP_temperature;BMP_pressure;BME280_temperature;BME280_humidity;BME280_pressure;Samples;Min_cycle;Max_cycle;Signal;HPM_P1;HPM_P2
2023/01/21 00:00:57;;;;;;;72.60;26.95;;;0.90;99.90;;;;;;5061520;28;20055;-73
2023/01/21 00:03:22;;;;;;;71.43;25.75;;;1.00;99.90;;;;;;5063319;28;20046;-74
2023/01/21 00:05:48;;;;;;;75.15;26.23;;;1.00;99.90;;;;;;5063129;28;20027;-74
2023/01/21 00:08:14;;;;;;;63.67;24.23;;;1.10;99.90;;;;;;5063143;28;20025;-74
2023/01/21 00:10:39;;;;;;;62.47;23.65;;;1.10;99.90;;;;;;5062925;28;20025;-75
2023/01/21 00:13:05;;;;;;;66.93;22.25;;;1.20;99.90;;;;;;5061937;28;20013;-76
2023/01/21 00:15:31;;;;;;;69.50;23.77;;;1.30;99.90;;;;;;5063173;28;20432;-74
2023/01/21 00:17:56;;;;;;;69.05;24.80;;;1.30;99.90;;;;;;5061912;28;20024;-74
2023/01/21 00:20:22;;;;;;;58.72;22.33;;;1.40;99.90;;;;;;5061708;28;20061;-75
2023/01/21 00:22:50;;;;;;;57.95;22.15;;;1.40;99.90;;;;;;5061934;28;20053;-77
2023/01/21 00:25:16;;;;;;;64.95;22.80;;;1.50;99.90;;;;;;5062645;28;20040;-75
2023/01/21 00:27:41;;;;;;;54.20;20.73;;;1.60;99.90;;;;;;5061432;28;20037;-75
2023/01/21 00:30:09;;;;;;;57.53;21.13;;;1.60;99.90;;;;;;5062326;28;20017;-74
2023/01/21 00:32:35;;;;;;;56.88;20.67;;;1.60;99.90;;;;;;5062148;28;20028;-75
2023/01/21 00:35:05;;;;;;;56.30;21.52;;;1.60;99.90;;;;;;5062123;28;20107;-76
2023/01/21 00:37:31;;;;;;;63.15;23.20;;;1.70;99.90;;;;;;5062524;28;20041;-75
2023/01/21 00:39:57;;;;;;;59.92;23.00;;;1.70;99.90;;;;;;5061469;28;20031;-76
2023/01/21 00:42:22;;;;;;;59.03;22.30;;;1.70;99.90;;;;;;5061074;28;20127;-76
2023/01/21 00:44:48;;;;;;;55.75;21.65;;;1.80;99.90;;;;;;5062561;28;20421;-74
2023/01/21 00:47:14;;;;;;;54.88;22.15;;;1.80;99.90;;;;;;5060565;28;20040;-75
2023/01/21 00:49:39;;;;;;;64.60;23.17;;;1.80;99.90;;;;;;5061681;28;20035;-75
2023/01/21 00:52:05;;;;;;;61.70;22.60;;;1.80;99.90;;;;;;5060996;28;20021;-76
2023/01/21 00:54:31;;;;;;;54.63;22.40;;;1.80;99.90;;;;;;5062324;28;20072;-74
2023/01/21 00:56:57;;;;;;;56.60;22.52;;;1.80;99.90;;;;;;5060327;28;20033;-76
2023/01/21 00:59:23;;;;;;;60.97;22.27;;;1.90;99.90;;;;;;5060442;28;20517;-74
2023/01/21 01:01:49;;;;;;;57.40;22.42;;;1.80;99.90;;;;;;5059947;28;20111;-74
2023/01/21 01:04:14;;;;;;;60.33;23.33;;;1.80;99.90;;;;;;5062202;28;20132;-74
2023/01/21 01:06:40;;;;;;;57.92;22.48;;;1.80;99.90;;;;;;5061402;28;20036;-74
2023/01/21 01:09:05;;;;;;;64.70;23.48;;;1.80;99.90;;;;;;5062662;28;20077;-73
2023/01/21 01:11:31;;;;;;;58.65;23.83;;;1.90;99.90;;;;;;5061704;28;20301;-76
2023/01/21 01:13:58;;;;;;;57.13;22.42;;;1.90;99.90;;;;;;5061177;28;20051;-74
2023/01/21 01:16:23;;;;;;;56.58;22.70;;;1.90;99.90;;;;;;5062951;28;20052;-75
2023/01/21 01:18:51;;;;;;;59.85;23.17;;;1.90;99.90;;;;;;5060814;28;20021;-76
2023/01/21 01:21:18;;;;;;;57.55;22.83;;;1.90;99.90;;;;;;5062407;28;20041;-74
2023/01/21 01:23:45;;;;;;;60.53;22.88;;;1.80;99.90;;;;;;5062567;28;20032;-76
2023/01/21 01:26:14;;;;;;;59.03;23.02;;;1.90;99.90;;;;;;5061496;28;20032;-73
2023/01/21 01:28:39;;;;;;;62.92;23.88;;;1.90;99.90;;;;;;5062678;28;20025;-73
2023/01/21 01:31:08;;;;;;;50.25;20.92;;;1.90;99.90;;;;;;5060550;28;20037;-75
2023/01/21 01:33:34;;;;;;;58.10;22.55;;;1.90;99.90;;;;;;5060975;28;20074;-75
2023/01/21 01:36:05;;;;;;;58.35;21.90;;;1.90;99.90;;;;;;5062585;28;21524;-76
2023/01/21 01:38:33;;;;;;;63.65;24.17;;;1.90;99.90;;;;;;5062523;28;20021;-75
2023/01/21 01:40:59;;;;;;;58.63;22.83;;;1.90;99.90;;;;;;5060449;28;20025;-75
2023/01/21 01:43:46;;;;;;;58.08;22.85;;;1.90;99.90;;;;;;5061187;28;20500;-76
2023/01/21 01:46:12;;;;;;;59.60;23.23;;;2.00;99.90;;;;;;5060222;28;20025;-74
2023/01/21 01:48:38;;;;;;;56.13;23.15;;;2.00;99.90;;;;;;5060880;28;20052;-76
2023/01/21 01:51:06;;;;;;;60.30;22.17;;;1.90;99.90;;;;;;5060405;28;20021;-75
2023/01/21 01:53:34;;;;;;;63.33;23.13;;;1.90;99.90;;;;;;5061107;28;20100;-75
2023/01/21 01:56:00;;;;;;;66.60;23.00;;;1.90;99.90;;;;;;5060931;28;20128;-75
2023/01/21 01:58:29;;;;;;;55.60;22.20;;;1.80;99.90;;;;;;5060737;28;20025;-74
2023/01/21 02:00:54;;;;;;;67.60;23.67;;;1.80;99.90;;;;;;5060442;28;20021;-75
2023/01/21 02:06:05;;;;;;;61.60;23.73;;;1.90;99.90;;;;;;5062056;28;20063;-75
2023/01/21 02:08:33;;;;;;;59.83;22.90;;;1.90;99.90;;;;;;5061698;28;20021;-75
2023/01/21 02:10:59;;;;;;;59.35;22.23;;;1.90;99.90;;;;;;5060510;28;20037;-73
2023/01/21 02:13:29;;;;;;;57.28;22.63;;;2.00;99.90;;;;;;5060229;28;20048;-73
2023/01/21 02:16:24;;;;;;;61.03;23.23;;;1.90;99.90;;;;;;5060409;28;20029;-73
2023/01/21 02:19:27;;;;;;;62.50;23.23;;;2.00;99.90;;;;;;5061594;28;20391;-73
2023/01/21 02:22:08;;;;;;;62.63;23.58;;;2.00;99.90;;;;;;5061161;28;20053;-73
2023/01/21 02:25:06;;;;;;;57.10;22.13;;;2.00;99.90;;;;;;5061611;28;20025;-76
2023/01/21 02:27:36;;;;;;;52.45;22.30;;;2.00;99.90;;;;;;5059760;28;20021;-75
2023/01/21 02:30:37;;;;;;;56.17;21.52;;;2.10;99.90;;;;;;5059955;28;20036;-76
2023/01/21 02:33:25;;;;;;;60.38;23.05;;;2.10;99.90;;;;;;5062366;28;20048;-76
2023/01/21 02:36:27;;;;;;;57.90;22.17;;;2.10;99.90;;;;;;5060778;28;20522;-73
2023/01/21 02:39:11;;;;;;;62.33;23.25;;;2.10;99.90;;;;;;5059904;28;20025;-74
2023/01/21 02:41:48;;;;;;;59.97;22.58;;;2.10;99.90;;;;;;5060606;28;20029;-72
2023/01/21 02:44:51;;;;;;;56.47;22.58;;;2.10;99.90;;;;;;5059013;28;20085;-74
2023/01/21 02:47:40;;;;;;;56.58;22.33;;;2.10;99.90;;;;;;5059854;28;20033;-75
2023/01/21 02:50:13;;;;;;;59.40;23.10;;;2.10;99.90;;;;;;5059789;28;20279;-75
2023/01/21 02:52:39;;;;;;;59.45;23.50;;;2.10;99.90;;;;;;5060838;28;20021;-75
2023/01/21 02:55:11;;;;;;;57.17;24.23;;;2.00;99.90;;;;;;5060744;28;20124;-75
2023/01/21 02:57:51;;;;;;;58.10;22.20;;;2.00;99.90;;;;;;5059431;28;20024;-74
2023/01/21 03:00:21;;;;;;;56.78;24.05;;;2.00;99.90;;;;;;5059693;28;20025;-75
2023/01/21 03:03:03;;;;;;;63.28;23.90;;;2.00;99.90;;;;;;5059614;28;20029;-76
2023/01/21 03:05:43;;;;;;;59.75;22.67;;;2.00;99.90;;;;;;5059275;28;20079;-75
2023/01/21 03:08:26;;;;;;;62.42;24.40;;;2.00;99.90;;;;;;5059680;28;20093;-74
2023/01/21 03:11:15;;;;;;;61.00;22.52;;;2.00;99.90;;;;;;5059453;28;20045;-75
2023/01/21 03:16:55;;;;;;;60.60;23.40;;;2.00;99.90;;;;;;5061180;28;20151;-75
2023/01/21 03:19:26;;;;;;;60.15;23.33;;;2.00;99.90;;;;;;5043782;28;20093;-74
2023/01/21 03:21:54;;;;;;;54.90;21.55;;;2.10;99.90;;;;;;5061969;28;20064;-76
2023/01/21 03:24:20;;;;;;;65.43;23.70;;;2.00;99.90;;;;;;5065038;28;20956;-75
2023/01/21 03:26:50;;;;;;;57.95;23.08;;;2.00;99.90;;;;;;5063237;28;20044;-73
2023/01/21 03:29:23;;;;;;;63.70;23.25;;;2.00;99.90;;;;;;5064572;28;20036;-74
2023/01/21 03:31:54;;;;;;;66.72;22.60;;;2.00;99.90;;;;;;5063300;28;20056;-74
2023/01/21 03:34:24;;;;;;;60.10;23.88;;;1.90;99.90;;;;;;5063107;28;20021;-76
2023/01/21 03:37:07;;;;;;;66.68;24.05;;;1.90;99.90;;;;;;5062914;28;20095;-75
2023/01/21 03:40:00;;;;;;;60.15;22.90;;;1.80;99.90;;;;;;5063680;28;20031;-76
2023/01/21 03:42:26;;;;;;;61.88;23.02;;;1.70;99.90;;;;;;5067056;28;20037;-76
2023/01/21 03:44:52;;;;;;;67.82;25.55;;;1.60;99.90;;;;;;5062906;28;20029;-75
2023/01/21 03:47:30;;;;;;;64.57;24.05;;;1.50;99.90;;;;;;5063017;28;20025;-76
2023/01/21 03:50:00;;;;;;;61.88;24.42;;;1.40;99.90;;;;;;5063316;28;20033;-73
2023/01/21 03:52:26;;;;;;;66.45;25.23;;;1.30;99.90;;;;;;5064114;28;20029;-75
2023/01/21 03:54:53;;;;;;;58.75;23.42;;;1.20;99.90;;;;;;5062550;28;20056;-72
2023/01/21 03:57:18;;;;;;;62.95;23.77;;;1.10;99.90;;;;;;5064154;28;20096;-75
2023/01/21 03:59:44;;;;;;;62.45;24.15;;;1.00;99.90;;;;;;5062915;28;20098;-75
2023/01/21 04:02:10;;;;;;;61.05;23.00;;;1.00;99.90;;;;;;5063008;28;20108;-74
2023/01/21 04:04:36;;;;;;;61.65;23.40;;;0.90;99.90;;;;;;5062913;28;20032;-76
2023/01/21 04:07:02;;;;;;;62.40;23.15;;;0.90;99.90;;;;;;5064407;28;20020;-74
2023/01/21 04:09:27;;;;;;;69.18;25.83;;;0.90;99.90;;;;;;5064135;28;20021;-72
2023/01/21 04:11:53;;;;;;;68.55;24.63;;;0.80;99.90;;;;;;5061876;28;20028;-75
2023/01/21 04:14:19;;;;;;;64.10;24.58;;;0.80;99.90;;;;;;5062514;28;20060;-75
2023/01/21 04:16:44;;;;;;;64.50;24.00;;;0.80;99.90;;;;;;5062214;28;20020;-74
2023/01/21 04:19:10;;;;;;;63.85;25.05;;;0.70;99.90;;;;;;5063890;28;20031;-77
2023/01/21 04:21:36;;;;;;;65.88;25.05;;;0.70;99.90;;;;;;5063672;28;20047;-73
2023/01/21 04:24:01;;;;;;;61.60;23.63;;;0.70;99.90;;;;;;5062881;28;20021;-75
2023/01/21 04:26:27;;;;;;;62.53;24.45;;;0.70;99.90;;;;;;5062550;28;20746;-74
2023/01/21 04:28:53;;;;;;;64.03;24.88;;;0.70;99.90;;;;;;5063700;28;20704;-73
2023/01/21 04:31:18;;;;;;;70.55;25.55;;;0.60;99.90;;;;;;5062261;28;20025;-75
2023/01/21 04:33:44;;;;;;;66.30;24.67;;;0.60;99.90;;;;;;5063698;28;20040;-72
2023/01/21 04:36:09;;;;;;;67.07;24.98;;;0.50;99.90;;;;;;5062265;28;20037;-73
2023/01/21 04:38:35;;;;;;;72.50;26.60;;;0.50;99.90;;;;;;5063155;28;20021;-73
2023/01/21 04:41:00;;;;;;;69.38;26.00;;;0.40;99.90;;;;;;5063473;28;20044;-74
2023/01/21 04:43:26;;;;;;;68.70;24.98;;;0.40;99.90;;;;;;5063117;28;20029;-75
2023/01/21 04:45:52;;;;;;;74.68;26.52;;;0.40;99.90;;;;;;5062933;28;20417;-74
2023/01/21 04:48:18;;;;;;;64.90;26.05;;;0.50;99.90;;;;;;5063046;28;20097;-75
2023/01/21 04:50:45;;;;;;;71.53;26.40;;;0.60;99.90;;;;;;5063250;28;20079;-73
2023/01/21 04:53:11;;;;;;;77.65;27.38;;;0.60;99.90;;;;;;5062820;28;20016;-75
2023/01/21 04:55:36;;;;;;;74.25;26.45;;;0.60;99.90;;;;;;5061718;28;20064;-74
2023/01/21 04:58:02;;;;;;;69.15;24.90;;;0.70;99.90;;;;;;5063505;28;20021;-74
2023/01/21 05:00:27;;;;;;;68.75;26.17;;;0.70;99.90;;;;;;5062902;28;20025;-74
2023/01/21 05:02:56;;;;;;;71.80;26.33;;;0.70;99.90;;;;;;5063138;28;20076;-75
2023/01/21 05:05:21;;;;;;;72.63;26.90;;;0.70;99.90;;;;;;5062754;28;20021;-75
2023/01/21 05:07:50;;;;;;;66.75;25.45;;;0.70;99.90;;;;;;5063349;28;20032;-75
2023/01/21 05:10:16;;;;;;;67.63;25.15;;;0.70;99.90;;;;;;5061244;28;20124;-75
2023/01/21 05:12:42;;;;;;;65.10;25.63;;;0.60;99.90;;;;;;5061637;28;20032;-74
2023/01/21 05:15:08;;;;;;;69.28;26.83;;;0.60;99.90;;;;;;5062466;28;20059;-75
2023/01/21 05:17:34;;;;;;;74.95;26.48;;;0.60;99.90;;;;;;5062983;28;20070;-75
2023/01/21 05:20:00;;;;;;;64.57;25.73;;;0.50;99.90;;;;;;5061888;28;20109;-74
2023/01/21 05:22:25;;;;;;;70.43;25.15;;;0.50;99.90;;;;;;5061279;28;20041;-74
2023/01/21 05:24:51;;;;;;;73.47;25.15;;;0.40;99.90;;;;;;5059874;28;20036;-74
2023/01/21 05:27:18;;;;;;;75.22;26.50;;;0.40;99.90;;;;;;5062522;28;20025;-74
2023/01/21 05:29:44;;;;;;;74.07;25.55;;;0.40;99.90;;;;;;5062520;28;20020;-75
2023/01/21 05:32:09;;;;;;;75.18;24.65;;;0.30;99.90;;;;;;5061402;28;20025;-74
2023/01/21 05:34:35;;;;;;;66.97;24.33;;;0.30;99.90;;;;;;5062791;28;20059;-74
2023/01/21 05:37:01;;;;;;;64.75;24.02;;;0.30;99.90;;;;;;5062551;28;20021;-76
2023/01/21 05:39:26;;;;;;;73.00;25.70;;;0.30;99.90;;;;;;5061027;28;20029;-74
2023/01/21 05:41:52;;;;;;;68.13;24.80;;;0.30;99.90;;;;;;5060976;28;20069;-73
2023/01/21 05:44:18;;;;;;;66.72;25.58;;;0.30;99.90;;;;;;5061743;28;20025;-77
2023/01/21 05:46:43;;;;;;;74.90;26.88;;;0.40;99.90;;;;;;5061007;28;20031;-73
2023/01/21 05:49:09;;;;;;;76.65;26.33;;;0.40;99.90;;;;;;5062500;28;20061;-74
2023/01/21 05:51:34;;;;;;;69.03;26.80;;;0.40;99.90;;;;;;5061139;28;20017;-74
2023/01/21 05:54:00;;;;;;;78.65;26.30;;;0.50;99.90;;;;;;5060945;28;20547;-76
2023/01/21 05:56:25;;;;;;;75.38;26.17;;;0.50;99.90;;;;;;5060913;28;20051;-75
2023/01/21 05:58:51;;;;;;;72.18;24.92;;;0.60;99.90;;;;;;5061324;28;20108;-75
2023/01/21 06:01:17;;;;;;;67.72;24.95;;;0.70;99.90;;;;;;5060727;28;20025;-75
2023/01/21 06:03:42;;;;;;;67.07;25.73;;;0.70;99.90;;;;;;5060548;28;20021;-76
2023/01/21 06:06:08;;;;;;;66.97;25.05;;;0.80;99.90;;;;;;5059561;28;20031;-75
2023/01/21 06:08:34;;;;;;;72.45;25.70;;;0.80;99.90;;;;;;5060579;28;20043;-74
2023/01/21 06:10:59;;;;;;;66.65;25.25;;;0.80;99.90;;;;;;5060550;28;20028;-73
2023/01/21 06:13:25;;;;;;;66.60;25.40;;;0.90;99.90;;;;;;5061804;28;20017;-73
2023/01/21 06:15:54;;;;;;;65.20;24.92;;;0.90;99.90;;;;;;5061745;28;20046;-73
2023/01/21 06:18:20;;;;;;;65.82;23.38;;;0.90;99.90;;;;;;5061140;28;20537;-74
2023/01/21 06:20:46;;;;;;;66.28;24.98;;;1.00;99.90;;;;;;5059242;28;20017;-73
2023/01/21 06:23:12;;;;;;;67.88;24.17;;;1.10;99.90;;;;;;5058844;28;20448;-73
2023/01/21 06:25:39;;;;;;;66.22;25.45;;;1.00;99.90;;;;;;5061411;28;20031;-73
2023/01/21 06:28:05;;;;;;;69.07;26.05;;;1.00;99.90;;;;;;5060992;28;20017;-74
2023/01/21 06:30:31;;;;;;;77.25;26.67;;;1.00;99.90;;;;;;5061801;28;20029;-74
2023/01/21 06:32:57;;;;;;;66.47;25.75;;;1.00;99.90;;;;;;5060261;28;20033;-72
2023/01/21 06:35:22;;;;;;;63.70;26.58;;;1.00;99.90;;;;;;5061754;28;20087;-73
2023/01/21 06:37:48;;;;;;;64.47;25.60;;;1.10;99.90;;;;;;5058918;28;20055;-74
2023/01/21 06:40:14;;;;;;;69.75;24.73;;;1.10;99.90;;;;;;5058699;28;20034;-74
2023/01/21 06:42:40;;;;;;;64.88;24.63;;;1.20;99.90;;;;;;5059944;28;20041;-74
2023/01/21 06:45:06;;;;;;;69.88;24.23;;;1.10;99.90;;;;;;5059104;28;20032;-74
2023/01/21 06:47:32;;;;;;;68.90;23.98;;;1.10;99.90;;;;;;5060160;28;20036;-74
2023/01/21 06:49:57;;;;;;;60.67;23.80;;;1.00;99.90;;;;;;5058930;28;20465;-74
2023/01/21 06:52:32;;;;;;;67.85;24.35;;;1.10;99.90;;;;;;5059302;28;20043;-73
2023/01/21 06:54:57;;;;;;;68.07;24.23;;;1.00;99.90;;;;;;5058932;28;20040;-74
2023/01/21 06:57:33;;;;;;;67.93;25.23;;;1.00;99.90;;;;;;5059289;28;20035;-75
2023/01/21 07:00:20;;;;;;;63.53;23.77;;;1.00;99.90;;;;;;5061055;28;20028;-76
2023/01/21 07:02:46;;;;;;;60.63;22.85;;;1.00;99.90;;;;;;5055602;28;20029;-73
2023/01/21 07:05:13;;;;;;;64.57;24.65;;;1.00;99.90;;;;;;5053404;28;20056;-75
2023/01/21 07:07:39;;;;;;;62.72;23.17;;;1.10;99.90;;;;;;5059967;28;20029;-74
2023/01/21 07:10:05;;;;;;;65.03;23.10;;;1.10;99.90;;;;;;5058673;28;20385;-75
2023/01/21 07:12:31;;;;;;;59.80;23.08;;;1.10;99.90;;;;;;5059792;28;20051;-75
2023/01/21 07:14:56;;;;;;;59.65;23.42;;;1.20;99.90;;;;;;5059834;28;20036;-72
2023/01/21 07:17:22;;;;;;;59.10;22.98;;;1.20;99.90;;;;;;5060094;28;20021;-74
2023/01/21 07:19:47;;;;;;;61.80;23.67;;;1.30;99.90;;;;;;5058177;28;20029;-71
2023/01/21 07:22:13;;;;;;;61.75;22.67;;;1.40;99.90;;;;;;5059105;28;20120;-73
2023/01/21 07:24:38;;;;;;;60.80;23.45;;;1.40;99.90;;;;;;5056926;28;20486;-72
2023/01/21 07:27:05;;;;;;;66.38;24.77;;;1.50;99.90;;;;;;5058102;28;20037;-73
2023/01/21 07:29:31;;;;;;;64.20;24.50;;;1.50;99.90;;;;;;5059070;28;20021;-72
2023/01/21 07:31:56;;;;;;;59.80;23.55;;;1.50;99.90;;;;;;5059438;28;20037;-72
2023/01/21 07:34:22;;;;;;;59.10;23.10;;;1.50;99.90;;;;;;5058213;28;20052;-73
2023/01/21 07:36:47;;;;;;;58.75;21.75;;;1.60;99.90;;;;;;5057025;28;20048;-72
2023/01/21 07:39:13;;;;;;;64.70;23.10;;;1.50;99.90;;;;;;5057869;28;20017;-73
2023/01/21 07:41:38;;;;;;;56.55;21.58;;;1.50;99.90;;;;;;5059088;28;20063;-73
2023/01/21 07:44:04;;;;;;;68.78;25.77;;;1.50;99.90;;;;;;5057905;28;20029;-72
2023/01/21 07:46:32;;;;;;;58.53;23.00;;;1.40;99.90;;;;;;5059419;28;20142;-73
2023/01/21 07:48:57;;;;;;;62.30;22.63;;;1.40;99.90;;;;;;5058373;28;20478;-73
2023/01/21 07:51:23;;;;;;;62.42;22.42;;;1.40;99.90;;;;;;5057768;28;20093;-73
2023/01/21 07:53:48;;;;;;;65.03;23.15;;;1.40;99.90;;;;;;5058603;28;20029;-74
2023/01/21 07:56:15;;;;;;;67.88;23.92;;;1.40;99.90;;;;;;5058005;28;20049;-73
2023/01/21 07:58:40;;;;;;;61.15;22.63;;;1.40;99.90;;;;;;5059485;28;20017;-73
2023/01/21 08:01:07;;;;;;;67.90;24.42;;;1.40;99.90;;;;;;5060133;28;20390;-73
2023/01/21 08:03:36;;;;;;;63.58;23.90;;;1.40;99.90;;;;;;5058325;28;20017;-72
2023/01/21 08:06:03;;;;;;;59.05;23.75;;;1.40;99.90;;;;;;5059823;28;20036;-73
2023/01/21 08:08:29;;;;;;;63.40;23.23;;;1.40;99.90;;;;;;5061613;28;20032;-72
2023/01/21 08:10:55;;;;;;;60.70;24.58;;;1.40;99.90;;;;;;5063293;28;20516;-74
2023/01/21 08:13:21;;;;;;;63.45;23.98;;;1.50;99.90;;;;;;5063575;28;20021;-72
2023/01/21 08:15:52;;;;;;;82.38;28.27;;;1.50;99.90;;;;;;5064274;28;20044;-72
2023/01/21 08:18:18;;;;;;;82.53;30.17;;;1.50;99.90;;;;;;5063759;28;20048;-72
2023/01/21 08:20:44;;;;;;;73.70;28.30;;;1.50;99.90;;;;;;5064245;28;20052;-74
2023/01/21 08:23:10;;;;;;;72.60;26.33;;;1.40;99.90;;;;;;5063921;28;20049;-72
2023/01/21 08:25:36;;;;;;;73.10;26.65;;;1.40;99.90;;;;;;5064133;28;20033;-74
2023/01/21 08:28:01;;;;;;;69.65;25.90;;;1.50;99.90;;;;;;5063762;28;20390;-73
2023/01/21 08:30:27;;;;;;;74.43;27.42;;;1.50;99.90;;;;;;5059435;28;20025;-72
2023/01/21 08:32:53;;;;;;;71.80;26.10;;;1.50;99.90;;;;;;5058550;28;20017;-73
2023/01/21 08:35:19;;;;;;;73.70;25.85;;;1.40;99.90;;;;;;5063220;28;20039;-73
2023/01/21 08:37:44;;;;;;;65.35;24.67;;;1.40;99.90;;;;;;5063679;28;20017;-74
2023/01/21 08:40:10;;;;;;;66.45;24.80;;;1.40;99.90;;;;;;5060859;28;20470;-72
2023/01/21 08:42:36;;;;;;;72.75;24.02;;;1.40;99.90;;;;;;5062234;28;20032;-72
2023/01/21 08:45:02;;;;;;;65.85;25.98;;;1.40;99.90;;;;;;5059963;28;20021;-72
2023/01/21 08:47:28;;;;;;;83.40;25.55;;;1.40;99.90;;;;;;5061684;28;20020;-73
2023/01/21 08:49:54;;;;;;;65.93;24.33;;;1.40;99.90;;;;;;5059353;28;20029;-72
2023/01/21 08:52:20;;;;;;;75.78;25.67;;;1.40;99.90;;;;;;5061353;28;20063;-74
2023/01/21 08:54:46;;;;;;;80.88;25.88;;;1.40;99.90;;;;;;5059507;28;20460;-75
2023/01/21 08:57:12;;;;;;;76.57;25.23;;;1.40;99.90;;;;;;5060549;28;20054;-73
2023/01/21 08:59:38;;;;;;;70.78;25.45;;;1.40;99.90;;;;;;5061217;28;20489;-75
2023/01/21 09:02:04;;;;;;;78.10;25.30;;;1.40;99.90;;;;;;5060329;28;20029;-73
2023/01/21 09:04:29;;;;;;;73.05;26.95;;;1.40;99.90;;;;;;5058650;28;20021;-74
2023/01/21 09:06:55;;;;;;;74.45;25.55;;;1.50;99.90;;;;;;5059922;28;20132;-73
2023/01/21 09:09:22;;;;;;;90.97;26.45;;;1.50;99.90;;;;;;5058703;28;20089;-73
2023/01/21 09:11:47;;;;;;;78.05;26.85;;;1.60;99.90;;;;;;5058863;28;20037;-72
2023/01/21 09:14:13;;;;;;;71.88;24.77;;;1.60;99.90;;;;;;5059695;28;20043;-75
2023/01/21 09:16:38;;;;;;;74.22;25.80;;;1.50;99.90;;;;;;5059733;28;20049;-73
2023/01/21 09:19:04;;;;;;;75.13;25.67;;;1.70;99.90;;;;;;5059010;28;20029;-73
2023/01/21 09:21:33;;;;;;;64.70;23.70;;;1.70;99.90;;;;;;5060612;28;20025;-74
2023/01/21 09:23:58;;;;;;;75.78;24.83;;;1.70;99.90;;;;;;5061777;28;20021;-73
2023/01/21 09:26:24;;;;;;;76.00;25.65;;;1.70;99.90;;;;;;5062713;28;20031;-74
2023/01/21 09:28:58;;;;;;;71.22;25.55;;;1.70;99.90;;;;;;5062450;28;20036;-71
2023/01/21 09:31:25;;;;;;;71.00;24.50;;;1.80;99.90;;;;;;5062780;28;20044;-73
2023/01/21 09:33:59;;;;;;;76.88;27.38;;;1.80;99.90;;;;;;5062950;28;20032;-72
2023/01/21 09:36:27;;;;;;;72.60;24.80;;;1.80;99.90;;;;;;5060997;28;20033;-74
2023/01/21 09:38:53;;;;;;;74.53;25.98;;;1.80;99.90;;;;;;5061043;28;20025;-74
2023/01/21 09:41:47;;;;;;;72.38;24.08;;;1.80;99.90;;;;;;5060134;28;20028;-73
2023/01/21 09:44:36;;;;;;;68.32;23.50;;;1.90;99.90;;;;;;5061328;28;20055;-74
2023/01/21 09:47:18;;;;;;;68.05;23.85;;;2.00;99.90;;;;;;5061322;28;20120;-74
2023/01/21 09:49:57;;;;;;;64.38;23.27;;;2.10;99.90;;;;;;5060419;28;20025;-71
2023/01/21 09:52:31;;;;;;;65.47;23.08;;;2.20;99.90;;;;;;5061173;28;20032;-74
2023/01/21 09:54:57;;;;;;;;;;;2.30;99.90;;;;;;5062535;28;20101;-73
2023/01/21 09:58:08;;;;;;;69.95;23.25;;;2.30;99.90;;;;;;5062524;28;19909;-72
2023/01/21 10:00:48;;;;;;;66.10;22.90;;;2.40;99.90;;;;;;5060144;28;20070;-72
2023/01/21 10:03:36;;;;;;;61.35;22.88;;;2.40;99.90;;;;;;5058671;28;20055;-74
2023/01/21 10:06:17;;;;;;;63.47;22.17;;;2.40;99.90;;;;;;5061132;28;20044;-74
2023/01/21 10:09:01;;;;;;;60.75;23.25;;;2.40;99.90;;;;;;5060674;28;20081;-73
2023/01/21 10:11:29;;;;;;;64.65;22.92;;;2.50;99.90;;;;;;5061827;28;20092;-72
2023/01/21 10:14:17;;;;;;;60.92;21.65;;;2.60;99.90;;;;;;5060817;28;20037;-72
2023/01/21 10:17:01;;;;;;;59.83;22.13;;;2.60;99.90;;;;;;5059001;28;20041;-72
2023/01/21 10:19:32;;;;;;;;;;;2.60;99.90;;;;;;5062147;28;20039;-71
2023/01/21 10:22:25;;;;;;;66.47;23.63;;;2.70;99.90;;;;;;5061211;28;20811;-73
2023/01/21 10:24:56;;;;;;;60.35;22.10;;;2.60;99.90;;;;;;5061461;28;20738;-72
2023/01/21 10:27:23;;;;;;;63.53;22.58;;;2.60;99.90;;;;;;5054197;28;20380;-73
2023/01/21 10:29:54;;;;;;;63.85;24.42;;;2.60;99.90;;;;;;5061092;28;20025;-72
2023/01/21 10:32:26;;;;;;;55.55;23.05;;;2.70;99.90;;;;;;5060006;28;20021;-72
2023/01/21 10:34:54;;;;;;;57.22;20.48;;;2.70;99.90;;;;;;5060688;28;20024;-72
2023/01/21 10:37:35;;;;;;;59.25;22.75;;;2.80;99.90;;;;;;5057935;28;20064;-71
2023/01/21 10:40:16;;;;;;;52.88;21.98;;;2.80;99.90;;;;;;5057951;28;20040;-72
2023/01/21 10:43:00;;;;;;;64.72;22.55;;;2.80;99.90;;;;;;5058965;28;20024;-72
2023/01/21 10:45:44;;;;;;;59.13;21.90;;;2.80;99.90;;;;;;5059884;28;20055;-70
2023/01/21 10:48:18;;;;;;;59.38;21.48;;;2.80;99.90;;;;;;5059088;28;20017;-75
2023/01/21 10:51:03;;;;;;;65.18;22.83;;;2.80;99.90;;;;;;5061638;28;20025;-72
2023/01/21 10:53:44;;;;;;;67.38;23.55;;;2.70;99.90;;;;;;5060406;28;20436;-71
2023/01/21 10:56:13;;;;;;;63.10;24.45;;;2.70;99.90;;;;;;5059748;28;20036;-72
2023/01/21 10:58:47;;;;;;;69.95;26.63;;;2.80;99.90;;;;;;5059018;28;20063;-72
2023/01/21 11:01:26;;;;;;;64.03;23.90;;;2.70;99.90;;;;;;5059988;28;20393;-71
2023/01/21 11:03:55;;;;;;;63.28;22.17;;;2.70;99.90;;;;;;5060254;28;20072;-73
2023/01/21 11:06:22;;;;;;;70.45;23.92;;;2.60;99.90;;;;;;5059748;28;20021;-72
2023/01/21 11:08:53;;;;;;;62.50;22.75;;;2.60;99.90;;;;;;5060176;28;20044;-73
2023/01/21 11:11:28;;;;;;;58.05;21.13;;;2.60;99.90;;;;;;5061129;28;20079;-72
2023/01/21 11:13:54;;;;;;;63.05;23.83;;;2.60;99.90;;;;;;5059757;28;20025;-71
2023/01/21 11:16:38;;;;;;;50.20;19.33;;;2.60;99.90;;;;;;5061334;28;20032;-72
2023/01/21 11:19:06;;;;;;;59.75;21.20;;;2.60;99.90;;;;;;5061398;28;20025;-75
2023/01/21 11:21:32;;;;;;;55.22;21.25;;;2.60;99.90;;;;;;5060016;28;20032;-72
2023/01/21 11:23:59;;;;;;;59.25;21.95;;;2.60;99.90;;;;;;5061155;28;20025;-72
2023/01/21 11:26:29;;;;;;;65.88;21.35;;;2.70;99.90;;;;;;5061239;28;20029;-72
2023/01/21 11:29:07;;;;;;;67.80;25.33;;;2.60;99.90;;;;;;5061275;28;20415;-72
2023/01/21 11:31:34;;;;;;;64.10;23.20;;;2.60;99.90;;;;;;5060048;28;20119;-73
2023/01/21 11:34:17;;;;;;;67.10;23.35;;;2.70;99.90;;;;;;5061390;28;20079;-72
2023/01/21 11:37:23;;;;;;;62.65;22.13;;;2.70;99.90;;;;;;5059588;28;20045;-71
2023/01/21 11:40:03;;;;;;;61.65;22.05;;;2.70;99.90;;;;;;5065637;28;20100;-73
2023/01/21 11:42:29;;;;;;;69.43;22.75;;;2.80;99.90;;;;;;5061675;28;20029;-71
2023/01/21 11:44:56;;;;;;;57.53;21.55;;;2.80;99.90;;;;;;5064928;28;20028;-72
2023/01/21 11:47:27;;;;;;;60.88;20.27;;;2.80;99.90;;;;;;5065102;28;20036;-73
2023/01/21 11:49:52;;;;;;;54.65;19.92;;;2.80;99.90;;;;;;5063974;28;20028;-73
2023/01/21 11:52:19;;;;;;;56.80;21.15;;;2.90;99.90;;;;;;5063512;28;20040;-71
2023/01/21 11:54:46;;;;;;;58.92;21.55;;;2.80;99.90;;;;;;5063522;28;20029;-71
2023/01/21 11:57:30;;;;;;;57.45;21.92;;;2.70;99.90;;;;;;5060873;28;20033;-71
2023/01/21 12:00:15;;;;;;;61.03;21.65;;;2.70;99.90;;;;;;5063845;28;20055;-71
2023/01/21 12:02:45;;;;;;;60.88;20.73;;;2.80;99.90;;;;;;5064339;28;20044;-71
2023/01/21 12:05:24;;;;;;;60.22;21.77;;;2.80;99.90;;;;;;5064197;28;20486;-72
2023/01/21 12:07:51;;;;;;;54.13;21.02;;;2.90;99.90;;;;;;5064503;28;20028;-72
2023/01/21 12:10:26;;;;;;;58.78;21.90;;;3.00;99.90;;;;;;5064484;28;20458;-75
2023/01/21 12:13:21;;;;;;;60.45;21.27;;;3.10;99.90;;;;;;5062599;28;20021;-71
2023/01/21 12:16:05;;;;;;;54.13;20.90;;;3.20;99.90;;;;;;5064241;28;20438;-72
2023/01/21 12:19:08;;;;;;;51.75;21.08;;;3.30;99.90;;;;;;5060854;28;20065;-73
2023/01/21 12:21:34;;;;;;;52.08;19.70;;;3.50;99.90;;;;;;5064066;28;20086;-74
2023/01/21 12:24:19;;;;;;;50.83;20.90;;;3.60;99.90;;;;;;5064551;28;20059;-71
2023/01/21 12:27:04;;;;;;;50.58;20.58;;;3.60;99.90;;;;;;5064163;28;20033;-72
2023/01/21 12:29:35;;;;;;;;;;;3.60;99.90;;;;;;5058792;28;20032;-72
2023/01/21 12:32:11;;;;;;;46.78;17.75;;;3.60;99.90;;;;;;5062159;28;20271;-72
2023/01/21 12:35:16;;;;;;;40.83;18.35;;;3.60;99.90;;;;;;5059088;28;20068;-72
2023/01/21 12:37:50;;;;;;;41.00;18.13;;;3.70;99.90;;;;;;5074189;28;20516;-72
2023/01/21 12:40:23;;;;;;;41.47;18.08;;;3.60;99.90;;;;;;5061945;28;20342;-73
2023/01/21 12:42:55;;;;;;;43.25;18.63;;;3.70;99.90;;;;;;5061674;28;20049;-73
2023/01/21 12:45:35;;;;;;;40.35;18.40;;;3.70;99.90;;;;;;5063429;28;20474;-72
2023/01/21 12:48:20;;;;;;;42.15;18.08;;;3.70;99.90;;;;;;5062279;28;20096;-72
2023/01/21 12:50:59;;;;;;;43.85;17.88;;;3.60;99.90;;;;;;5060999;28;21285;-73
2023/01/21 12:53:31;;;;;;;45.83;19.42;;;3.60;99.90;;;;;;5061827;28;20749;-74
2023/01/21 12:56:02;;;;;;;44.83;19.40;;;3.50;99.90;;;;;;5059063;28;20045;-74
2023/01/21 12:58:57;;;;;;;44.15;19.25;;;3.50;99.90;;;;;;5059372;28;20050;-72
2023/01/21 13:01:47;;;;;;;44.67;17.90;;;3.50;99.90;;;;;;5060388;28;20044;-71